Time;durP1;ratioP1;P1;durP2;ratioP2;P2;SDS_P1;SDS_P2;PMS_P1;PMS_P2;Temp;Humidity;BMP_temperature;BMP_pressure;BME280_temperature;BME280_humidity;BME280_pressure;Samples;Min_cycle;Max_cycle;Signal;HPM_P1;HPM_P2
2021/08/31 00:00:45;;;;;;;1999.90;999.90;;;;;;;11.92;100.00;95653.84;5012252;28;20203;-71
2021/08/31 00:03:13;;;;;;;1999.90;999.90;;;;;;;11.90;100.00;95656.00;5012283;28;20206;-71
2021/08/31 00:05:40;;;;;;;1999.90;999.90;;;;;;;11.84;100.00;95661.63;5012119;28;20768;-70
2021/08/31 00:08:07;;;;;;;1999.90;999.90;;;;;;;11.78;100.00;95663.56;5011997;28;20276;-71
2021/08/31 00:10:35;;;;;;;1999.90;999.90;;;;;;;11.74;100.00;95667.84;5011507;28;20253;-71
2021/08/31 00:13:02;;;;;;;1999.90;999.90;;;;;;;11.77;100.00;95667.25;5012352;28;20217;-71
2021/08/31 00:15:29;;;;;;;1999.90;999.90;;;;;;;11.68;100.00;95655.97;5012247;28;20214;-71
2021/08/31 00:18:00;;;;;;;1999.90;999.90;;;;;;;11.69;100.00;95661.94;5012287;28;20265;-71
2021/08/31 00:20:28;;;;;;;1999.90;999.90;;;;;;;11.65;100.00;95659.16;5011468;28;20210;-72
2021/08/31 00:22:56;;;;;;;1999.90;999.90;;;;;;;11.76;100.00;95657.09;5012002;28;20198;-70
2021/08/31 00:25:23;;;;;;;1999.90;999.90;;;;;;;11.71;100.00;95657.97;5011578;28;20203;-70
2021/08/31 00:27:50;;;;;;;1999.90;999.90;;;;;;;11.71;100.00;95657.97;5011666;28;20690;-71
2021/08/31 00:30:17;;;;;;;1999.90;999.90;;;;;;;11.78;100.00;95653.16;5011676;28;20212;-70
2021/08/31 00:32:44;;;;;;;1999.90;999.90;;;;;;;11.81;100.00;95652.56;5011224;28;20265;-70
2021/08/31 00:35:11;;;;;;;1999.90;999.90;;;;;;;11.80;100.00;95655.47;5011416;28;20964;-70
2021/08/31 00:37:40;;;;;;;1999.90;999.90;;;;;;;11.70;100.00;95651.25;5010932;28;20279;-69
2021/08/31 00:40:08;;;;;;;1999.90;999.90;;;;;;;11.59;100.00;95663.72;5011002;28;20222;-69
2021/08/31 00:42:35;;;;;;;1999.90;999.90;;;;;;;11.41;100.00;95669.06;5011015;28;20683;-71
2021/08/31 00:45:02;;;;;;;1999.90;999.90;;;;;;;11.37;100.00;95668.13;5011051;28;20210;-71
2021/08/31 00:47:29;;;;;;;1999.90;999.90;;;;;;;11.28;100.00;95668.03;5011132;28;20233;-69
2021/08/31 00:49:56;;;;;;;1999.90;999.90;;;;;;;11.17;100.00;95670.09;5010790;28;20202;-70
2021/08/31 00:52:23;;;;;;;1999.90;999.90;;;;;;;11.25;100.00;95670.47;5010727;28;20257;-70
2021/08/31 00:54:53;;;;;;;1999.90;999.90;;;;;;;11.29;100.00;95674.78;5010401;28;20210;-71
2021/08/31 00:57:20;;;;;;;1999.90;999.90;;;;;;;11.32;100.00;95661.19;5010354;28;20960;-70
2021/08/31 00:59:48;;;;;;;1999.90;999.90;;;;;;;11.39;100.00;95666.00;5010285;28;20672;-70
2021/08/31 01:02:15;;;;;;;1999.90;999.90;;;;;;;11.44;100.00;95663.28;5010379;28;20678;-70
2021/08/31 01:04:42;;;;;;;1999.90;999.90;;;;;;;11.44;100.00;95663.28;5010493;28;20206;-70
2021/08/31 01:07:09;;;;;;;1999.90;999.90;;;;;;;11.39;100.00;95661.56;5010184;28;20199;-70
2021/08/31 01:09:38;;;;;;;1999.90;999.90;;;;;;;11.35;100.00;95665.06;5010173;28;20911;-70
2021/08/31 01:12:07;;;;;;;1999.90;999.90;;;;;;;11.31;100.00;95670.06;5010529;28;20933;-70
2021/08/31 01:14:35;;;;;;;1999.90;999.90;;;;;;;11.24;100.00;95669.69;5010424;28;20198;-70
2021/08/31 01:17:02;;;;;;;1999.90;999.90;;;;;;;11.18;100.00;95666.44;5010520;28;20213;-69
2021/08/31 01:19:31;;;;;;;1999.90;999.90;;;;;;;11.18;100.00;95671.63;5010222;28;20231;-70
2021/08/31 01:22:00;;;;;;;1999.90;999.90;;;;;;;11.30;100.00;95678.94;5010483;28;20268;-69
2021/08/31 01:24:27;;;;;;;1999.90;999.90;;;;;;;11.31;100.00;95674.50;5010559;28;20209;-70
2021/08/31 01:26:58;;;;;;;1999.90;999.90;;;;;;;11.28;100.00;95677.69;5010406;28;20203;-70
2021/08/31 01:29:25;;;;;;;1999.90;999.90;;;;;;;11.19;100.00;95678.38;5010193;28;20187;-70
2021/08/31 01:31:53;;;;;;;1999.90;999.90;;;;;;;11.10;100.00;95689.75;5010205;28;20264;-69
2021/08/31 01:34:20;;;;;;;1999.90;999.90;;;;;;;11.06;100.00;95681.75;5009989;28;20635;-69
2021/08/31 01:36:47;;;;;;;1999.90;999.90;;;;;;;11.02;100.00;95683.41;5010213;28;20199;-70
2021/08/31 01:39:14;;;;;;;1999.90;999.90;;;;;;;10.95;100.00;95688.25;5009993;28;20226;-69
2021/08/31 01:41:41;;;;;;;1999.90;999.90;;;;;;;10.90;100.00;95684.97;5009987;28;20206;-69
2021/08/31 01:44:10;;;;;;;1999.90;999.90;;;;;;;10.94;100.00;95691.91;5010474;28;20206;-69
2021/08/31 01:46:37;;;;;;;1999.90;999.90;;;;;;;11.13;100.00;95684.75;5010002;28;20203;-70
2021/08/31 01:49:04;;;;;;;1999.90;999.90;;;;;;;11.10;100.00;95687.16;5010472;28;20256;-71
2021/08/31 01:51:31;;;;;;;1999.90;999.90;;;;;;;11.18;100.00;95694.28;5010335;28;20194;-71
2021/08/31 01:53:58;;;;;;;1999.90;999.90;;;;;;;11.11;100.00;95692.06;5009806;28;20205;-69
2021/08/31 01:56:25;;;;;;;1999.90;999.90;;;;;;;11.09;100.00;95691.59;5010462;28;20220;-72
2021/08/31 01:58:52;;;;;;;1999.90;999.90;;;;;;;11.11;100.00;95689.44;5009930;28;20198;-71
2021/08/31 02:01:21;;;;;;;1999.90;999.90;;;;;;;11.17;100.00;95690.91;5009232;28;20289;-70
2021/08/31 02:03:48;;;;;;;1999.90;999.90;;;;;;;11.24;100.00;95685.31;5007533;28;20213;-71
2021/08/31 02:06:15;;;;;;;1999.90;999.90;;;;;;;11.29;100.00;95687.03;5007840;28;20225;-69
2021/08/31 02:08:42;;;;;;;1999.90;999.90;;;;;;;11.32;100.00;95681.22;5006484;28;20214;-70
2021/08/31 02:11:09;;;;;;;1999.90;999.90;;;;;;;11.43;100.00;95685.16;5009065;28;20292;-71
2021/08/31 02:13:36;;;;;;;1999.90;999.90;;;;;;;11.51;100.00;95685.22;5009638;28;20199;-70
2021/08/31 02:16:03;;;;;;;1999.90;999.90;;;;;;;11.48;100.00;95682.44;5009688;28;20626;-70
2021/08/31 02:18:32;;;;;;;1999.90;999.90;;;;;;;11.48;100.00;95674.66;5009300;28;20207;-70
2021/08/31 02:20:59;;;;;;;1999.90;999.90;;;;;;;11.54;100.00;95678.69;5009385;28;20287;-70
2021/08/31 02:23:26;;;;;;;1999.90;999.90;;;;;;;11.57;100.00;95686.66;5009304;28;20240;-70
2021/08/31 02:25:54;;;;;;;1999.90;999.90;;;;;;;11.55;100.00;95686.19;5008974;28;20214;-70
2021/08/31 02:28:21;;;;;;;1999.90;999.90;;;;;;;11.50;100.00;95677.72;5009606;28;20194;-70
2021/08/31 02:30:48;;;;;;;1999.90;999.90;;;;;;;11.54;100.00;95686.50;5010011;28;20233;-69
2021/08/31 02:33:15;;;;;;;1999.90;999.90;;;;;;;11.57;100.00;95683.28;5009587;28;20206;-70
2021/08/31 02:35:45;;;;;;;1999.90;999.90;;;;;;;11.64;100.00;95686.25;5009721;28;20294;-71
2021/08/31 02:38:12;;;;;;;1999.90;999.90;;;;;;;11.69;100.00;95687.97;5010251;28;20205;-70
2021/08/31 02:40:39;;;;;;;1999.90;999.90;;;;;;;11.69;100.00;95686.16;5009478;28;20265;-70
2021/08/31 02:43:06;;;;;;;1999.90;999.90;;;;;;;11.66;100.00;95691.94;5012306;28;20203;-70
2021/08/31 02:45:33;;;;;;;1999.90;999.90;;;;;;;11.71;100.00;95684.00;5013582;28;20202;-69
2021/08/31 02:48:00;;;;;;;1999.90;999.90;;;;;;;11.72;100.00;95689.97;5013858;28;20675;-71
2021/08/31 02:50:27;;;;;;;1999.90;999.90;;;;;;;11.77;100.00;95687.28;5013362;28;20202;-70
2021/08/31 02:52:56;;;;;;;1999.90;999.90;;;;;;;11.76;100.00;95693.56;5013844;28;20711;-71
2021/08/31 02:55:23;;;;;;;1999.90;999.90;;;;;;;11.80;100.00;95703.13;5013354;28;20276;-71
2021/08/31 02:57:50;;;;;;;1999.90;999.90;;;;;;;11.88;100.00;95699.78;5013354;28;20219;-73
2021/08/31 03:00:19;;;;;;;1999.90;999.90;;;;;;;11.87;100.00;95703.47;5013599;28;20276;-72
2021/08/31 03:02:46;;;;;;;1999.90;999.90;;;;;;;11.88;100.00;95704.22;5013419;28;20751;-70
2021/08/31 03:05:14;;;;;;;1999.90;999.90;;;;;;;11.94;100.00;95709.03;5012901;28;20290;-68
2021/08/31 03:07:41;;;;;;;1999.90;999.90;;;;;;;11.88;100.00;95710.22;5012593;28;20203;-70
2021/08/31 03:10:11;;;;;;;1999.90;999.90;;;;;;;11.85;100.00;95710.81;5012131;28;20233;-71
2021/08/31 03:12:39;;;;;;;1999.90;999.90;;;;;;;11.84;100.00;95708.50;5012516;28;20206;-69
2021/08/31 03:15:07;;;;;;;1999.90;999.90;;;;;;;11.84;100.00;95711.09;5012404;28;20214;-70
2021/08/31 03:17:34;;;;;;;1999.90;999.90;;;;;;;11.88;100.00;95712.03;5010968;28;20205;-71
2021/08/31 03:20:01;;;;;;;1999.90;999.90;;;;;;;11.87;100.00;95716.47;5012820;28;20250;-72
2021/08/31 03:22:28;;;;;;;1999.90;999.90;;;;;;;11.88;100.00;95718.03;5012850;28;20634;-71
2021/08/31 03:24:55;;;;;;;1999.90;999.90;;;;;;;11.83;100.00;95723.34;5012212;28;20245;-71
2021/08/31 03:27:23;;;;;;;1999.90;999.90;;;;;;;11.74;100.00;95725.13;5012081;28;20215;-70
2021/08/31 03:29:50;;;;;;;1999.90;999.90;;;;;;;11.66;100.00;95729.16;5011551;28;20458;-70
2021/08/31 03:32:17;;;;;;;1999.90;999.90;;;;;;;11.73;100.00;95731.38;5012055;28;20206;-70
2021/08/31 03:34:44;;;;;;;1999.90;999.90;;;;;;;11.70;100.00;95724.16;5011811;28;20199;-69
2021/08/31 03:37:11;;;;;;;1999.90;999.90;;;;;;;11.64;100.00;95730.50;5011916;28;20733;-70
2021/08/31 03:39:39;;;;;;;1999.90;999.90;;;;;;;11.56;100.00;95723.38;5012338;28;20227;-68
2021/08/31 03:42:06;;;;;;;1999.90;999.90;;;;;;;11.62;100.00;95732.63;5012399;28;20207;-73
2021/08/31 03:44:34;;;;;;;1999.90;999.90;;;;;;;11.50;100.00;95725.34;5012213;28;20209;-72
2021/08/31 03:47:01;;;;;;;1999.90;999.90;;;;;;;11.40;100.00;95735.19;5007238;28;20297;-72
2021/08/31 03:49:28;;;;;;;1999.90;999.90;;;;;;;11.34;100.00;95738.97;5024069;28;20253;-72
2021/08/31 03:51:55;;;;;;;1999.90;999.90;;;;;;;11.15;100.00;95739.84;5001685;28;20666;-71
2021/08/31 03:54:22;;;;;;;1999.90;999.90;;;;;;;11.12;100.00;95745.63;5010722;28;20241;-72
2021/08/31 03:56:50;;;;;;;1999.90;999.90;;;;;;;11.04;100.00;95748.13;5011185;28;20203;-72
2021/08/31 03:59:17;;;;;;;1999.90;999.90;;;;;;;10.84;100.00;95751.88;5003793;28;20268;-72
2021/08/31 04:01:45;;;;;;;1999.90;999.90;;;;;;;10.95;100.00;95757.66;5011703;28;20229;-71
2021/08/31 04:04:12;;;;;;;1999.90;999.90;;;;;;;10.93;100.00;95757.94;5011800;28;20206;-73
2021/08/31 04:06:39;;;;;;;1999.90;999.90;;;;;;;10.91;100.00;95752.25;5011059;28;20249;-74
2021/08/31 04:09:06;;;;;;;1999.90;999.90;;;;;;;10.95;100.00;95755.84;5011059;28;20203;-73
2021/08/31 04:11:33;;;;;;;1999.90;999.90;;;;;;;11.02;100.00;95751.00;5012647;28;20262;-73
2021/08/31 04:14:00;;;;;;;1999.90;999.90;;;;;;;11.05;100.00;95755.66;5012310;28;20256;-74
2021/08/31 04:16:27;;;;;;;1999.90;999.90;;;;;;;11.20;100.00;95757.97;5012391;28;20234;-74
2021/08/31 04:18:56;;;;;;;1999.90;999.90;;;;;;;11.13;100.00;95760.16;5011867;28;20687;-74
2021/08/31 04:21:23;;;;;;;1999.90;999.90;;;;;;;11.29;100.00;95762.47;5011927;28;20453;-73
2021/08/31 04:23:50;;;;;;;1999.90;999.90;;;;;;;11.41;100.00;95758.31;5012054;28;20195;-74
2021/08/31 04:26:17;;;;;;;1999.90;999.90;;;;;;;11.63;100.00;95755.78;5012176;28;20205;-73
2021/08/31 04:28:44;;;;;;;1999.90;999.90;;;;;;;12.02;100.00;95752.59;5012602;28;20199;-74
2021/08/31 04:31:11;;;;;;;1999.90;999.90;;;;;;;12.28;100.00;95762.44;5011815;28;20728;-73
2021/08/31 04:33:38;;;;;;;1999.90;999.90;;;;;;;12.47;98.87;95758.56;5011682;28;20268;-74
2021/08/31 04:36:07;;;;;;;1999.90;999.90;;;;;;;12.79;97.42;95762.72;5011792;28;20214;-75
2021/08/31 04:38:34;;;;;;;1999.90;999.90;;;;;;;12.98;96.03;95759.88;5011846;28;20305;-74
2021/08/31 04:41:01;;;;;;;1999.90;999.90;;;;;;;13.15;94.88;95757.34;5011733;28;20992;-74
2021/08/31 04:43:28;;;;;;;1999.90;999.90;;;;;;;13.24;94.62;95770.44;5011776;28;20670;-74
2021/08/31 04:45:55;;;;;;;1999.90;999.90;;;;;;;13.31;94.59;95766.31;5011614;28;20195;-74
2021/08/31 04:48:22;;;;;;;1999.90;999.90;;;;;;;13.38;94.71;95765.88;5011539;28;20202;-74
2021/08/31 04:50:50;;;;;;;1999.90;999.90;;;;;;;13.39;95.20;95769.25;5011527;28;20596;-73
2021/08/31 04:53:20;;;;;;;1999.90;999.90;;;;;;;13.35;94.58;95769.06;5011374;28;20198;-73
2021/08/31 04:55:47;;;;;;;1999.90;999.90;;;;;;;13.55;93.83;95773.72;5011327;28;20665;-73
2021/08/31 04:58:14;;;;;;;1999.90;999.90;;;;;;;13.64;93.24;95781.59;5011766;28;20518;-73
2021/08/31 05:00:41;;;;;;;1999.90;999.90;;;;;;;13.67;92.90;95781.75;5011291;28;20226;-73
2021/08/31 05:03:08;;;;;;;1999.90;999.90;;;;;;;13.64;93.75;95779.00;5011133;28;20685;-74
2021/08/31 05:05:36;;;;;;;1999.90;999.90;;;;;;;13.53;94.98;95777.72;5011293;28;20214;-73
2021/08/31 05:08:03;;;;;;;1999.90;999.90;;;;;;;13.57;96.79;95776.81;5011293;28;20244;-73
2021/08/31 05:10:31;;;;;;;1999.90;999.90;;;;;;;13.57;97.74;95778.66;5002332;28;20230;-73
2021/08/31 05:12:58;;;;;;;1999.90;999.90;;;;;;;13.61;97.22;95777.75;4991358;28;20199;-74
2021/08/31 05:15:26;;;;;;;1999.90;999.90;;;;;;;13.62;97.81;95781.13;4991407;28;20605;-73
2021/08/31 05:17:53;;;;;;;1999.90;999.90;;;;;;;13.69;96.85;95771.78;4991348;28;20226;-73
2021/08/31 05:20:21;;;;;;;1999.90;999.90;;;;;;;13.67;95.57;95762.69;4991558;28;20234;-73
2021/08/31 05:22:51;;;;;;;1999.90;999.90;;;;;;;13.73;94.36;95758.88;4991164;28;20754;-73
2021/08/31 05:25:19;;;;;;;1999.90;999.90;;;;;;;13.81;93.20;95763.31;4991648;28;20210;-74
2021/08/31 05:27:47;;;;;;;1999.90;999.90;;;;;;;13.95;92.33;95763.94;5004611;28;20209;-74
2021/08/31 05:30:15;;;;;;;1999.90;999.90;;;;;;;14.01;91.76;95751.50;5011206;28;20615;-74
2021/08/31 05:32:42;;;;;;;1999.90;999.90;;;;;;;14.01;90.98;95754.88;5010608;28;20234;-73
2021/08/31 05:35:10;;;;;;;1999.90;999.90;;;;;;;14.10;91.30;95760.84;5010646;28;20663;-73
2021/08/31 05:37:37;;;;;;;1999.90;999.90;;;;;;;14.19;91.34;95759.03;5010551;28;20202;-73
2021/08/31 05:40:05;;;;;;;1999.90;999.90;;;;;;;14.32;91.13;95759.16;5010419;28;20209;-74
2021/08/31 05:42:32;;;;;;;1999.90;999.90;;;;;;;14.49;91.22;95756.56;5010942;28;20206;-73
2021/08/31 05:45:01;;;;;;;1999.90;999.90;;;;;;;14.55;91.76;95756.06;5010879;28;20217;-76
2021/08/31 05:47:28;;;;;;;1999.90;999.90;;;;;;;14.62;91.32;95758.97;5011151;28;20202;-76
2021/08/31 05:49:55;;;;;;;1999.90;999.90;;;;;;;14.89;90.96;95759.69;5011027;28;20260;-74
2021/08/31 05:52:22;;;;;;;1999.90;999.90;;;;;;;14.95;92.39;95758.41;5002656;28;20238;-75
2021/08/31 05:54:49;;;;;;;1999.90;999.90;;;;;;;15.11;92.69;95756.81;5011198;28;20199;-75
2021/08/31 05:57:16;;;;;;;1999.90;999.90;;;;;;;15.09;92.76;95761.59;5010542;28;20961;-75
2021/08/31 05:59:43;;;;;;;1999.90;999.90;;;;;;;15.15;92.84;95762.16;5010680;28;20195;-75
2021/08/31 06:02:12;;;;;;;1999.90;999.90;;;;;;;15.17;92.70;95760.78;5010479;28;20226;-76
2021/08/31 06:04:40;;;;;;;1999.90;999.90;;;;;;;15.23;90.30;95771.84;5010945;28;20207;-76
2021/08/31 06:07:08;;;;;;;1999.90;999.90;;;;;;;15.03;91.66;95768.09;5010844;28;20198;-74
2021/08/31 06:09:37;;;;;;;1999.90;999.90;;;;;;;15.39;92.68;95767.63;5008971;28;20246;-74
2021/08/31 06:12:05;;;;;;;1999.90;999.90;;;;;;;15.39;90.15;95767.63;4991008;28;20195;-75
2021/08/31 06:14:32;;;;;;;1999.90;999.90;;;;;;;15.39;90.20;95773.59;4990968;28;20218;-76
2021/08/31 06:16:59;;;;;;;1999.90;999.90;;;;;;;15.58;89.39;95777.69;4990445;28;20211;-75
2021/08/31 06:19:28;;;;;;;1999.90;999.90;;;;;;;15.93;86.21;95781.63;4991481;28;20202;-75
2021/08/31 06:21:55;;;;;;;1999.90;999.90;;;;;;;15.94;87.70;95770.81;4990853;28;20729;-75
2021/08/31 06:24:22;;;;;;;1999.90;999.90;;;;;;;15.91;88.96;95773.31;4991339;28;20210;-76
2021/08/31 06:26:49;;;;;;;1999.90;999.90;;;;;;;16.08;88.73;95773.19;4991435;28;20196;-78
2021/08/31 06:29:16;;;;;;;1999.90;999.90;;;;;;;16.27;88.10;95765.63;4991357;28;20199;-75
2021/08/31 06:31:44;;;;;;;1999.90;999.90;;;;;;;16.52;86.32;95768.31;4991483;28;20195;-76
2021/08/31 06:34:11;;;;;;;1999.90;999.90;;;;;;;16.64;85.53;95756.00;4991056;28;20207;-74
2021/08/31 06:36:40;;;;;;;1999.90;999.90;;;;;;;16.46;86.21;95766.97;4990950;28;20207;-74
2021/08/31 06:39:07;;;;;;;1999.90;999.90;;;;;;;16.60;84.81;95762.25;4990950;28;20215;-74
2021/08/31 06:41:34;;;;;;;1999.90;999.90;;;;;;;16.78;82.75;95755.72;4990644;28;20223;-74
2021/08/31 06:44:01;;;;;;;1999.90;999.90;;;;;;;16.91;82.50;95759.91;4990654;28;20214;-74
2021/08/31 06:46:28;;;;;;;1999.90;999.90;;;;;;;16.95;83.57;95752.13;4990862;28;20206;-76
2021/08/31 06:48:55;;;;;;;1999.90;999.90;;;;;;;16.99;83.55;95761.66;4991034;28;20677;-78
2021/08/31 06:51:22;;;;;;;1999.90;999.90;;;;;;;16.90;83.92;95761.00;4991082;28;20192;-76
2021/08/31 06:53:51;;;;;;;1999.90;999.90;;;;;;;17.15;81.40;95767.78;4990504;28;20195;-74
2021/08/31 06:56:20;;;;;;;1999.90;999.90;;;;;;;17.10;81.58;95767.25;4990347;28;20664;-74
2021/08/31 06:58:47;;;;;;;1999.90;999.90;;;;;;;17.25;80.02;95773.69;4990225;28;20231;-74
2021/08/31 07:01:14;;;;;;;1999.90;999.90;;;;;;;17.66;80.12;95768.25;4990434;28;20230;-73
2021/08/31 07:03:42;;;;;;;1999.90;999.90;;;;;;;17.97;79.46;95768.41;4991082;28;20205;-74
2021/08/31 07:06:09;;;;;;;1999.90;999.90;;;;;;;17.94;79.44;95771.69;4990852;28;20226;-75
2021/08/31 07:08:36;;;;;;;1999.90;999.90;;;;;;;17.83;79.16;95775.84;4990691;28;20207;-74
2021/08/31 07:11:04;;;;;;;1999.90;999.90;;;;;;;17.64;79.98;95768.56;5003165;28;20226;-75
2021/08/31 07:13:32;;;;;;;1999.90;999.90;;;;;;;17.94;78.72;95776.94;5009817;28;20732;-75
2021/08/31 07:15:59;;;;;;;1999.90;999.90;;;;;;;18.12;77.47;95776.69;5009706;28;20210;-75
2021/08/31 07:18:26;;;;;;;1999.90;999.90;;;;;;;18.17;75.15;95776.44;5009948;28;20202;-75
2021/08/31 07:20:53;;;;;;;1999.90;999.90;;;;;;;18.22;75.74;95776.22;5009545;28;20226;-75
2021/08/31 07:23:20;;;;;;;1999.90;999.90;;;;;;;18.42;76.45;95772.63;5009929;28;20247;-76
2021/08/31 07:25:48;;;;;;;1999.90;999.90;;;;;;;18.42;76.25;95770.75;5010073;28;20257;-75
2021/08/31 07:28:17;;;;;;;1999.90;999.90;;;;;;;18.72;75.95;95770.41;5010946;28;20264;-74
2021/08/31 07:30:45;;;;;;;1999.90;999.90;;;;;;;18.86;75.30;95765.50;5013172;28;20199;-74
2021/08/31 07:33:12;;;;;;;1999.90;999.90;;;;;;;18.79;75.14;95773.97;5013270;28;20199;-74
2021/08/31 07:35:39;;;;;;;1999.90;999.90;;;;;;;19.12;73.07;95765.00;5013011;28;20589;-76
2021/08/31 07:38:07;;;;;;;1999.90;999.90;;;;;;;19.09;73.78;95763.03;5012848;28;20213;-74
2021/08/31 07:40:34;;;;;;;1999.90;999.90;;;;;;;19.40;71.53;95765.66;5012653;28;20198;-75
2021/08/31 07:43:02;;;;;;;1999.90;999.90;;;;;;;19.06;72.33;95767.13;5012718;28;20260;-74
2021/08/31 07:45:31;;;;;;;1999.90;999.90;;;;;;;19.25;70.88;95764.56;5012641;28;21032;-75
2021/08/31 07:47:58;;;;;;;1999.90;999.90;;;;;;;19.67;70.81;95767.44;5012788;28;20584;-75
2021/08/31 07:50:25;;;;;;;1999.90;999.90;;;;;;;19.78;69.94;95763.13;5012961;28;20203;-75
2021/08/31 07:52:53;;;;;;;1999.90;999.90;;;;;;;20.04;68.29;95767.03;5013222;28;20201;-75
2021/08/31 07:55:21;;;;;;;1999.90;999.90;;;;;;;20.01;66.52;95762.47;5012770;28;20195;-74
2021/08/31 07:57:48;;;;;;;1999.90;999.90;;;;;;;20.36;68.54;95757.91;5012713;28;20695;-75
2021/08/31 08:00:17;;;;;;;1999.90;999.90;;;;;;;20.46;66.51;95762.63;5012908;28;20206;-74
2021/08/31 08:02:47;;;;;;;1999.90;999.90;;;;;;;20.52;64.79;95761.19;5012110;28;20300;-75
2021/08/31 08:05:14;;;;;;;1999.90;999.90;;;;;;;20.78;62.06;95752.59;5012101;28;20707;-74
2021/08/31 08:07:41;;;;;;;1999.90;999.90;;;;;;;20.71;65.44;95752.50;5012301;28;20206;-75
2021/08/31 08:10:10;;;;;;;1999.90;999.90;;;;;;;20.94;65.69;95755.13;5012052;28;20234;-75
2021/08/31 08:12:37;;;;;;;1999.90;999.90;;;;;;;20.85;62.93;95747.44;5012608;28;20620;-74
2021/08/31 08:15:05;;;;;;;1999.90;999.90;;;;;;;21.07;62.96;95753.09;5012117;28;20214;-74
2021/08/31 08:17:32;;;;;;;1999.90;999.90;;;;;;;21.17;62.98;95745.31;5012443;28;20280;-75
2021/08/31 08:20:01;;;;;;;1999.90;999.90;;;;;;;21.30;61.35;95744.03;5012692;28;20195;-75
2021/08/31 08:22:29;;;;;;;1999.90;999.90;;;;;;;21.42;62.38;95740.41;5012079;28;20222;-75
2021/08/31 08:24:56;;;;;;;1999.90;999.90;;;;;;;21.40;61.87;95735.50;5012627;28;20198;-76
2021/08/31 08:27:24;;;;;;;1999.90;999.90;;;;;;;21.28;62.51;95738.34;5012445;28;20233;-74
2021/08/31 08:29:51;;;;;;;1999.90;999.90;;;;;;;21.63;63.08;95737.31;5012169;28;20281;-75
2021/08/31 08:32:18;;;;;;;1999.90;999.90;;;;;;;21.79;59.31;95733.38;5011912;28;20753;-73
2021/08/31 08:34:45;;;;;;;1999.90;999.90;;;;;;;22.03;60.41;95739.34;5011693;28;20203;-73
2021/08/31 08:37:14;;;;;;;1999.90;999.90;;;;;;;22.11;60.82;95735.69;5011543;28;20198;-73
2021/08/31 08:39:41;;;;;;;1999.90;999.90;;;;;;;22.12;61.41;95730.00;5011283;28;20205;-74
2021/08/31 08:42:09;;;;;;;1999.90;999.90;;;;;;;22.53;60.48;95725.53;5011808;28;20288;-74
2021/08/31 08:44:36;;;;;;;1999.90;999.90;;;;;;;22.78;56.79;95723.13;5011725;28;20213;-74
2021/08/31 08:47:04;;;;;;;1999.90;999.90;;;;;;;22.77;57.21;95726.91;5011334;28;20252;-74
2021/08/31 08:49:31;;;;;;;1999.90;999.90;;;;;;;23.10;56.76;95718.09;5011538;28;20221;-74
2021/08/31 08:52:00;;;;;;;1999.90;999.90;;;;;;;23.22;55.71;95719.69;5011668;28;20199;-74
2021/08/31 08:54:30;;;;;;;1999.90;999.90;;;;;;;23.18;50.57;95712.47;5011462;28;20191;-74
2021/08/31 08:56:58;;;;;;;1999.90;999.90;;;;;;;22.39;51.75;95712.16;5011281;28;20236;-75
2021/08/31 08:59:25;;;;;;;1999.90;999.90;;;;;;;22.35;52.90;95705.31;5011402;28;20287;-74
2021/08/31 09:01:54;;;;;;;1999.90;999.90;;;;;;;22.60;54.50;95703.66;5011068;28;20230;-74
2021/08/31 09:04:42;;;;;;;1999.90;999.90;;;;;;;22.82;55.37;95702.72;5011227;28;20717;-74
2021/08/31 09:07:17;;;;;;;1999.90;999.90;;;;;;;23.06;51.83;95710.09;5011015;28;20636;-75
2021/08/31 09:09:48;;;;;;;1999.90;999.90;;;;;;;23.20;50.83;95706.06;5011127;28;20242;-75
2021/08/31 09:12:30;;;;;;;1999.90;999.90;;;;;;;23.20;51.61;95706.06;5010913;28;20193;-74
2021/08/31 09:14:57;;;;;;;1999.90;999.90;;;;;;;23.35;49.98;95694.41;5011151;28;20217;-74
2021/08/31 09:17:24;;;;;;;1999.90;999.90;;;;;;;23.66;51.72;95704.44;5010978;28;20660;-75
2021/08/31 09:19:51;;;;;;;1999.90;999.90;;;;;;;23.87;47.21;95696.59;5010936;28;20248;-73
2021/08/31 09:22:20;;;;;;;1999.90;999.90;;;;;;;23.86;48.17;95686.34;5010920;28;20229;-75
2021/08/31 09:25:02;;;;;;;1999.90;999.90;;;;;;;24.03;50.80;95691.72;5010768;28;20650;-75
2021/08/31 09:27:34;;;;;;;1999.90;999.90;;;;;;;24.15;50.76;95692.53;5010932;28;20183;-74
2021/08/31 09:30:20;;;;;;;1999.90;999.90;;;;;;;24.02;49.14;95686.78;5010974;28;20612;-74
2021/08/31 09:33:06;;;;;;;1999.90;999.90;;;;;;;24.27;50.83;95684.22;5010923;28;20194;-74
2021/08/31 09:35:33;;;;;;;1999.90;999.90;;;;;;;24.11;47.42;95675.81;5010591;28;20190;-74
2021/08/31 09:38:02;;;;;;;1999.90;999.90;;;;;;;24.35;48.84;95673.25;5010681;28;20205;-74
2021/08/31 09:40:31;;;;;;;1999.90;999.90;;;;;;;24.36;46.59;95674.75;5010542;28;20199;-74
2021/08/31 09:43:05;;;;;;;1999.90;999.90;;;;;;;24.35;46.28;95673.25;5010235;28;20222;-74
2021/08/31 09:45:34;;;;;;;1999.90;999.90;;;;;;;24.21;46.88;95665.22;5010494;28;20558;-74
2021/08/31 09:48:03;;;;;;;1999.90;999.90;;;;;;;24.23;47.44;95662.97;5010795;28;20274;-74
2021/08/31 09:50:35;;;;;;;1999.90;999.90;;;;;;;24.09;47.18;95662.91;5010665;28;20206;-74
2021/08/31 09:53:14;;;;;;;1999.90;999.90;;;;;;;24.29;45.90;95660.69;5009810;28;20266;-74
2021/08/31 09:55:44;;;;;;;1999.90;999.90;;;;;;;24.34;44.71;95653.13;5010488;28;20233;-74
2021/08/31 09:58:17;;;;;;;1999.90;999.90;;;;;;;24.55;42.87;95652.38;5010592;28;20186;-74
2021/08/31 10:00:46;;;;;;;1999.90;999.90;;;;;;;24.80;42.79;95642.53;5010262;28;20226;-73
2021/08/31 10:03:14;;;;;;;1999.90;999.90;;;;;;;24.76;42.14;95638.31;5010187;28;20309;-73
2021/08/31 10:05:43;;;;;;;1999.90;999.90;;;;;;;24.77;42.56;95632.63;5010022;28;20206;-74
2021/08/31 10:08:11;;;;;;;1999.90;999.90;;;;;;;24.97;43.01;95634.91;5010470;28;20194;-73
2021/08/31 10:10:40;;;;;;;1999.90;999.90;;;;;;;25.33;45.58;95620.41;5008734;28;20707;-73
2021/08/31 10:13:11;;;;;;;1999.90;999.90;;;;;;;25.47;41.98;95627.59;5009881;28;20675;-73
2021/08/31 10:15:44;;;;;;;1999.90;999.90;;;;;;;25.50;44.03;95627.59;5010224;28;20195;-73
2021/08/31 10:18:11;;;;;;;1999.90;999.90;;;;;;;25.46;45.56;95626.81;5009285;28;20582;-73
2021/08/31 10:20:44;;;;;;;1999.90;999.90;;;;;;;25.12;42.84;95629.19;5009858;28;20593;-72
2021/08/31 10:23:13;;;;;;;1999.90;999.90;;;;;;;25.44;40.74;95623.81;5009740;28;20206;-73
2021/08/31 10:25:41;;;;;;;1999.90;999.90;;;;;;;25.52;42.30;95622.63;5009992;28;20252;-73
2021/08/31 10:28:25;;;;;;;1999.90;999.90;;;;;;;25.43;41.65;95608.22;5010111;28;20593;-73
2021/08/31 10:30:53;;;;;;;1999.90;999.90;;;;;;;25.63;45.47;95611.97;5009901;28;20579;-73
2021/08/31 10:33:44;;;;;;;1999.90;999.90;;;;;;;25.65;42.51;95612.34;5009982;28;20958;-73
2021/08/31 10:36:12;;;;;;;1999.90;999.90;;;;;;;25.79;40.32;95611.50;4995054;28;20221;-73
2021/08/31 10:38:48;;;;;;;1999.90;999.90;;;;;;;25.76;39.38;95606.94;5009682;28;20241;-73
2021/08/31 10:41:42;;;;;;;1999.90;999.90;;;;;;;25.75;40.67;95603.56;5010059;28;20186;-72
2021/08/31 10:44:12;;;;;;;1999.90;999.90;;;;;;;25.90;42.51;95604.25;5009556;28;20249;-72
2021/08/31 10:47:10;;;;;;;1999.90;999.90;;;;;;;25.96;40.11;95600.00;5010113;28;20187;-72
2021/08/31 10:50:13;;;;;;;1999.90;999.90;;;;;;;25.93;40.46;95588.22;4976226;28;20206;-72
2021/08/31 10:52:42;;;;;;;1999.90;999.90;;;;;;;26.15;41.99;95583.53;5009644;28;20204;-74
2021/08/31 10:55:38;;;;;;;1999.90;999.90;;;;;;;26.33;41.44;95586.09;5009928;28;20285;-71
2021/08/31 10:58:09;;;;;;;1999.90;999.90;;;;;;;26.38;39.11;95588.34;5009694;28;20201;-72